Plato — 8PRX — position and weather

sailwx.info

Track history (hours):
 
Tides and Currents Weather Stations Pressure Air Temp Water Temp Dewpoint Dewpoint Depression Visibility Wind Speed Wind Dir Waves Ship Positions

Plato

Last reported at 2018-Jan-21 07:59 UTC. Time now 2018-Jan-21 08:19 UTC.
Position N 60°53' E 006°50'.

Length 89 m; draft 3.1 m.

Type: Cargo ship. MMSI: 314189000.

Date/timePositionNaut miles runAvg speedWind from/ knotsBaromVisibWave heightAir tempDewpointWater temp
2018-Jan-21 07:59N 60°53' E 006°50'0 0.0
2018-Jan-21 07:24N 60°53' E 006°50'0 0.0
2018-Jan-21 06:57N 60°53' E 006°50'0 0.0
2018-Jan-21 06:30N 60°53' E 006°50'0 0.0
2018-Jan-21 05:59N 60°53' E 006°50'0 0.0
2018-Jan-21 05:25N 60°53' E 006°50'0 0.0
2018-Jan-21 04:56N 60°53' E 006°50'0 0.0
2018-Jan-21 04:30N 60°53' E 006°50'0 0.0
2018-Jan-21 04:00N 60°53' E 006°50'0 0.0
2018-Jan-21 03:30N 60°53' E 006°50'0 0.0
2018-Jan-21 02:59N 60°53' E 006°50'0 0.0
2018-Jan-21 02:29N 60°53' E 006°50'0 0.0
2018-Jan-21 02:00N 60°53' E 006°50'0 0.0
2018-Jan-21 01:30N 60°53' E 006°50'0 0.0
2018-Jan-21 01:00N 60°53' E 006°50'0 0.0
2018-Jan-21 00:30N 60°53' E 006°50'0 0.0
2018-Jan-21 00:00N 60°53' E 006°50'0 0.0
2018-Jan-20 23:29N 60°53' E 006°50'0 0.0
2018-Jan-20 22:58N 60°53' E 006°50'0 0.0
2018-Jan-20 22:28N 60°53' E 006°50'83 3.9
2018-Jan-20 01:10N 60°03' E 004°37'1 7.8
2018-Jan-20 01:00N 60°02' E 004°37'4 8.2
2018-Jan-20 00:30N 59°58' E 004°37'4 8.3
2018-Jan-20 00:00N 59°54' E 004°37'4 8.6
2018-Jan-19 23:30N 59°49' E 004°37'40 8.4
2018-Jan-19 18:46N 59°10' E 004°49'2 8.1
2018-Jan-19 18:30N 59°09' E 004°53'4 8.2
2018-Jan-19 18:00N 59°07' E 005°00'4 8.7
2018-Jan-19 17:30N 59°07' E 005°08'4 8.6
2018-Jan-19 17:00N 59°07' E 005°17'3 6.8
2018-Jan-19 16:30N 59°07' E 005°23'4 8.2
2018-Jan-19 15:59N 59°06' E 005°31'5 9.5
2018-Jan-19 15:30N 59°02' E 005°37'5 9.6
2018-Jan-19 14:59N 59°00' E 005°46'4 7.6
2018-Jan-19 14:29N 58°57' E 005°45'0 0.0
2018-Jan-19 13:56N 58°57' E 005°45'0 0.0
2018-Jan-19 13:29N 58°57' E 005°45'0 0.0
2018-Jan-19 13:00N 58°57' E 005°45'0 0.0
2018-Jan-19 12:29N 58°57' E 005°45'0 0.0
2018-Jan-19 11:59N 58°57' E 005°45'0 0.0
2018-Jan-19 11:30N 58°57' E 005°45'0 0.0
2018-Jan-19 10:58N 58°57' E 005°45'0 0.0
2018-Jan-19 10:30N 58°57' E 005°45'0 0.0
2018-Jan-19 09:58N 58°57' E 005°45'0 0.0
2018-Jan-19 09:28N 58°57' E 005°45'0 0.0
2018-Jan-19 08:58N 58°57' E 005°45'0 0.0
2018-Jan-19 08:28N 58°57' E 005°45'0 0.0
2018-Jan-19 07:58N 58°57' E 005°45'0 0.0
2018-Jan-19 07:28N 58°57' E 005°45'0 0.0
2018-Jan-19 06:58N 58°57' E 005°45'0 0.0
2018-Jan-19 06:28N 58°57' E 005°45'0 0.0
2018-Jan-19 05:58N 58°57' E 005°45'0 0.0
2018-Jan-19 05:28N 58°57' E 005°45'0 0.0
2018-Jan-19 04:58N 58°57' E 005°45'0 0.0
2018-Jan-19 04:28N 58°57' E 005°45'0 0.0
2018-Jan-19 03:55N 58°57' E 005°45'0 0.0
2018-Jan-19 03:30N 58°57' E 005°45'0 0.0
2018-Jan-19 03:00N 58°57' E 005°45'0 0.0
2018-Jan-19 02:30N 58°57' E 005°45'0 0.0
2018-Jan-19 02:00N 58°57' E 005°45'0 0.0
2018-Jan-19 01:30N 58°57' E 005°45'0 0.0
2018-Jan-19 01:00N 58°57' E 005°45'0 0.0
2018-Jan-19 00:30N 58°57' E 005°45'0 0.0
2018-Jan-19 00:00N 58°57' E 005°45'0 0.0
2018-Jan-18 23:30N 58°57' E 005°45'0 0.0
2018-Jan-18 23:00N 58°57' E 005°45'0 0.0
2018-Jan-18 22:30N 58°57' E 005°45'0 0.0
2018-Jan-18 22:00N 58°57' E 005°45'0 0.0
2018-Jan-18 21:30N 58°57' E 005°45'0 0.0
2018-Jan-18 21:00N 58°57' E 005°45'0 0.0
2018-Jan-18 20:30N 58°57' E 005°45'0 0.0
2018-Jan-18 20:00N 58°57' E 005°45'0 0.0
2018-Jan-18 19:30N 58°57' E 005°45'0 0.0
2018-Jan-18 19:00N 58°57' E 005°45'0 0.0
2018-Jan-18 18:30N 58°57' E 005°45'0 0.0
2018-Jan-18 18:00N 58°57' E 005°45'0 0.0
2018-Jan-18 17:29N 58°57' E 005°45'0 0.0
2018-Jan-18 16:59N 58°57' E 005°45'0 0.0
2018-Jan-18 16:29N 58°57' E 005°45'0 0.0
2018-Jan-18 15:59N 58°57' E 005°45'0 0.0
2018-Jan-18 15:29N 58°57' E 005°45'0 0.0
2018-Jan-18 14:59N 58°57' E 005°45'0 0.0
2018-Jan-18 14:29N 58°57' E 005°45'0 0.0
2018-Jan-18 13:59N 58°57' E 005°45'0 0.0
2018-Jan-18 13:29N 58°57' E 005°45'0 0.0
2018-Jan-18 12:59N 58°57' E 005°45'0 0.0
2018-Jan-18 12:29N 58°57' E 005°45'0 0.0
2018-Jan-18 12:00N 58°57' E 005°45'0 0.0
2018-Jan-18 11:30N 58°57' E 005°45'0 0.0
2018-Jan-18 11:00N 58°57' E 005°45'0 0.0
2018-Jan-18 10:29N 58°57' E 005°45'0 0.0
2018-Jan-18 09:58N 58°57' E 005°45'0 0.0
2018-Jan-18 09:28N 58°57' E 005°45'0 0.0
2018-Jan-18 08:58N 58°57' E 005°45'0 0.0
2018-Jan-18 08:28N 58°57' E 005°45'0 0.0
2018-Jan-18 07:58N 58°57' E 005°45'0 0.0
2018-Jan-18 07:28N 58°57' E 005°45'0 0.0
2018-Jan-18 07:00N 58°57' E 005°45'1 1.2
2018-Jan-18 06:30N 58°57' E 005°46'4 7.6
2018-Jan-18 05:59N 59°01' E 005°44'5 9.5
2018-Jan-18 05:30N 59°02' E 005°36'4 8.7
2018-Jan-18 05:00N 58°58' E 005°33'510.6
2018-Jan-18 04:30N 58°53' E 005°32'4 8.1
2018-Jan-18 04:00N 58°50' E 005°27'4 8.5
2018-Jan-18 03:30N 58°46' E 005°23'5 9.4
2018-Jan-18 03:00N 58°41' E 005°24'5 9.5
2018-Jan-18 02:30N 58°37' E 005°28'4 8.9
2018-Jan-18 02:00N 58°33' E 005°30'4 8.1
2018-Jan-18 01:30N 58°29' E 005°34'4 7.7
2018-Jan-18 00:58N 58°26' E 005°39'8 8.3
2018-Jan-18 00:00N 58°21' E 005°51'0 8.4
2018-Jan-17 23:56N 58°20' E 005°51'  
2018-Jan-12 03:35N 53°48' E 005°27'410.0
2018-Jan-12 03:13N 53°45' E 005°24'310.0
2018-Jan-12 02:56N 53°42' E 005°22'13 8.6
2018-Jan-12 01:23N 53°30' E 005°12'410.9
2018-Jan-12 01:00N 53°28' E 005°06'510.6
2018-Jan-12 00:30N 53°24' E 005°01'5 9.6
2018-Jan-12 00:00N 53°20' E 004°57'4 7.1
2018-Jan-11 23:30N 53°19' E 005°03'4 7.5
2018-Jan-11 23:00N 53°19' E 005°10'5 9.2
2018-Jan-11 22:30N 53°14' E 005°11'5 9.6
2018-Jan-11 22:01N 53°12' E 005°18'4 8.3
2018-Jan-11 21:31N 53°10' E 005°24'1 1.7
2018-Jan-11 20:58N 53°11' E 005°26'0 0.0
2018-Jan-11 20:28N 53°11' E 005°26'0 0.0
2018-Jan-11 19:58N 53°11' E 005°26'0 0.0
2018-Jan-11 19:28N 53°11' E 005°26'0 0.0
2018-Jan-11 18:58N 53°11' E 005°26'0 0.0
2018-Jan-11 18:28N 53°11' E 005°26'0 0.0
2018-Jan-11 17:58N 53°11' E 005°26'0 0.0
2018-Jan-11 17:28N 53°11' E 005°26'0 0.0
2018-Jan-11 16:58N 53°11' E 005°26'0 0.0
2018-Jan-11 16:28N 53°11' E 005°26'0 0.0
2018-Jan-11 15:58N 53°11' E 005°26'0 0.0
2018-Jan-11 15:28N 53°11' E 005°26'0 0.0
2018-Jan-11 14:58N 53°11' E 005°26'0 0.0
2018-Jan-11 14:28N 53°11' E 005°26'0 0.1
2018-Jan-11 13:58N 53°11' E 005°26'0 0.0
2018-Jan-11 13:28N 53°11' E 005°26'0 0.0
2018-Jan-11 12:55N 53°11' E 005°26'0 0.0
2018-Jan-11 12:28N 53°11' E 005°26'0 0.0
2018-Jan-11 11:58N 53°11' E 005°26'0 0.0
2018-Jan-11 11:28N 53°11' E 005°26'0 0.0
2018-Jan-11 10:58N 53°11' E 005°26'0 0.0
2018-Jan-11 10:28N 53°11' E 005°26'0 0.0
2018-Jan-11 09:58N 53°11' E 005°26'0 0.0
2018-Jan-11 09:28N 53°11' E 005°26'0 0.0
2018-Jan-11 08:58N 53°11' E 005°26'0 0.0
2018-Jan-11 08:28N 53°11' E 005°26'  
Track history (hours):
 
Tides and Currents Weather Stations Pressure Air Temp Water Temp Dewpoint Dewpoint Depression Visibility Wind Speed Wind Dir Waves Ship Positions

Plato

Last reported at 2018-Jan-21 07:59 UTC. Time now 2018-Jan-21 08:19 UTC.
Position N 60°53' E 006°50'.

Length 89 m; draft 3.1 m.

Type: Cargo ship. MMSI: 314189000.

Date/timePositionNaut miles runAvg speedWind from/ knotsBaromVisibWave heightAir tempDewpointWater temp
2018-Jan-21 07:59N 60°53' E 006°50'0 0.0
2018-Jan-21 07:24N 60°53' E 006°50'0 0.0
2018-Jan-21 06:57N 60°53' E 006°50'0 0.0
2018-Jan-21 06:30N 60°53' E 006°50'0 0.0
2018-Jan-21 05:59N 60°53' E 006°50'0 0.0
2018-Jan-21 05:25N 60°53' E 006°50'0 0.0
2018-Jan-21 04:56N 60°53' E 006°50'0 0.0
2018-Jan-21 04:30N 60°53' E 006°50'0 0.0
2018-Jan-21 04:00N 60°53' E 006°50'0 0.0
2018-Jan-21 03:30N 60°53' E 006°50'0 0.0
2018-Jan-21 02:59N 60°53' E 006°50'0 0.0
2018-Jan-21 02:29N 60°53' E 006°50'0 0.0
2018-Jan-21 02:00N 60°53' E 006°50'0 0.0
2018-Jan-21 01:30N 60°53' E 006°50'0 0.0
2018-Jan-21 01:00N 60°53' E 006°50'0 0.0
2018-Jan-21 00:30N 60°53' E 006°50'0 0.0
2018-Jan-21 00:00N 60°53' E 006°50'0 0.0
2018-Jan-20 23:29N 60°53' E 006°50'0 0.0
2018-Jan-20 22:58N 60°53' E 006°50'0 0.0
2018-Jan-20 22:28N 60°53' E 006°50'83 3.9
2018-Jan-20 01:10N 60°03' E 004°37'1 7.8
2018-Jan-20 01:00N 60°02' E 004°37'4 8.2
2018-Jan-20 00:30N 59°58' E 004°37'4 8.3
2018-Jan-20 00:00N 59°54' E 004°37'4 8.6
2018-Jan-19 23:30N 59°49' E 004°37'40 8.4
2018-Jan-19 18:46N 59°10' E 004°49'2 8.1
2018-Jan-19 18:30N 59°09' E 004°53'4 8.2
2018-Jan-19 18:00N 59°07' E 005°00'4 8.7
2018-Jan-19 17:30N 59°07' E 005°08'4 8.6
2018-Jan-19 17:00N 59°07' E 005°17'3 6.8
2018-Jan-19 16:30N 59°07' E 005°23'4 8.2
2018-Jan-19 15:59N 59°06' E 005°31'5 9.5
2018-Jan-19 15:30N 59°02' E 005°37'5 9.6
2018-Jan-19 14:59N 59°00' E 005°46'4 7.6
2018-Jan-19 14:29N 58°57' E 005°45'0 0.0
2018-Jan-19 13:56N 58°57' E 005°45'0 0.0
2018-Jan-19 13:29N 58°57' E 005°45'0 0.0
2018-Jan-19 13:00N 58°57' E 005°45'0 0.0
2018-Jan-19 12:29N 58°57' E 005°45'0 0.0
2018-Jan-19 11:59N 58°57' E 005°45'0 0.0
2018-Jan-19 11:30N 58°57' E 005°45'0 0.0
2018-Jan-19 10:58N 58°57' E 005°45'0 0.0
2018-Jan-19 10:30N 58°57' E 005°45'0 0.0
2018-Jan-19 09:58N 58°57' E 005°45'0 0.0
2018-Jan-19 09:28N 58°57' E 005°45'0 0.0
2018-Jan-19 08:58N 58°57' E 005°45'0 0.0
2018-Jan-19 08:28N 58°57' E 005°45'0 0.0
2018-Jan-19 07:58N 58°57' E 005°45'0 0.0
2018-Jan-19 07:28N 58°57' E 005°45'0 0.0
2018-Jan-19 06:58N 58°57' E 005°45'0 0.0
2018-Jan-19 06:28N 58°57' E 005°45'0 0.0
2018-Jan-19 05:58N 58°57' E 005°45'0 0.0
2018-Jan-19 05:28N 58°57' E 005°45'0 0.0
2018-Jan-19 04:58N 58°57' E 005°45'0 0.0
2018-Jan-19 04:28N 58°57' E 005°45'0 0.0
2018-Jan-19 03:55N 58°57' E 005°45'0 0.0
2018-Jan-19 03:30N 58°57' E 005°45'0 0.0
2018-Jan-19 03:00N 58°57' E 005°45'0 0.0
2018-Jan-19 02:30N 58°57' E 005°45'0 0.0
2018-Jan-19 02:00N 58°57' E 005°45'0 0.0
2018-Jan-19 01:30N 58°57' E 005°45'0 0.0
2018-Jan-19 01:00N 58°57' E 005°45'0 0.0
2018-Jan-19 00:30N 58°57' E 005°45'0 0.0
2018-Jan-19 00:00N 58°57' E 005°45'0 0.0
2018-Jan-18 23:30N 58°57' E 005°45'0 0.0
2018-Jan-18 23:00N 58°57' E 005°45'0 0.0
2018-Jan-18 22:30N 58°57' E 005°45'0 0.0
2018-Jan-18 22:00N 58°57' E 005°45'0 0.0
2018-Jan-18 21:30N 58°57' E 005°45'0 0.0
2018-Jan-18 21:00N 58°57' E 005°45'0 0.0
2018-Jan-18 20:30N 58°57' E 005°45'0 0.0
2018-Jan-18 20:00N 58°57' E 005°45'0 0.0
2018-Jan-18 19:30N 58°57' E 005°45'0 0.0
2018-Jan-18 19:00N 58°57' E 005°45'0 0.0
2018-Jan-18 18:30N 58°57' E 005°45'0 0.0
2018-Jan-18 18:00N 58°57' E 005°45'0 0.0
2018-Jan-18 17:29N 58°57' E 005°45'0 0.0
2018-Jan-18 16:59N 58°57' E 005°45'0 0.0
2018-Jan-18 16:29N 58°57' E 005°45'0 0.0
2018-Jan-18 15:59N 58°57' E 005°45'0 0.0
2018-Jan-18 15:29N 58°57' E 005°45'0 0.0
2018-Jan-18 14:59N 58°57' E 005°45'0 0.0
2018-Jan-18 14:29N 58°57' E 005°45'0 0.0
2018-Jan-18 13:59N 58°57' E 005°45'0 0.0
2018-Jan-18 13:29N 58°57' E 005°45'0 0.0
2018-Jan-18 12:59N 58°57' E 005°45'0 0.0
2018-Jan-18 12:29N 58°57' E 005°45'0 0.0
2018-Jan-18 12:00N 58°57' E 005°45'0 0.0
2018-Jan-18 11:30N 58°57' E 005°45'0 0.0
2018-Jan-18 11:00N 58°57' E 005°45'0 0.0
2018-Jan-18 10:29N 58°57' E 005°45'0 0.0
2018-Jan-18 09:58N 58°57' E 005°45'0 0.0
2018-Jan-18 09:28N 58°57' E 005°45'0 0.0
2018-Jan-18 08:58N 58°57' E 005°45'0 0.0
2018-Jan-18 08:28N 58°57' E 005°45'0 0.0
2018-Jan-18 07:58N 58°57' E 005°45'0 0.0
2018-Jan-18 07:28N 58°57' E 005°45'0 0.0
2018-Jan-18 07:00N 58°57' E 005°45'1 1.2
2018-Jan-18 06:30N 58°57' E 005°46'4 7.6
2018-Jan-18 05:59N 59°01' E 005°44'5 9.5
2018-Jan-18 05:30N 59°02' E 005°36'4 8.7
2018-Jan-18 05:00N 58°58' E 005°33'510.6
2018-Jan-18 04:30N 58°53' E 005°32'4 8.1
2018-Jan-18 04:00N 58°50' E 005°27'4 8.5
2018-Jan-18 03:30N 58°46' E 005°23'5 9.4
2018-Jan-18 03:00N 58°41' E 005°24'5 9.5
2018-Jan-18 02:30N 58°37' E 005°28'4 8.9
2018-Jan-18 02:00N 58°33' E 005°30'4 8.1
2018-Jan-18 01:30N 58°29' E 005°34'4 7.7
2018-Jan-18 00:58N 58°26' E 005°39'8 8.3
2018-Jan-18 00:00N 58°21' E 005°51'0 8.4
2018-Jan-17 23:56N 58°20' E 005°51'  
2018-Jan-12 03:35N 53°48' E 005°27'410.0
2018-Jan-12 03:13N 53°45' E 005°24'310.0
2018-Jan-12 02:56N 53°42' E 005°22'13 8.6
2018-Jan-12 01:23N 53°30' E 005°12'410.9
2018-Jan-12 01:00N 53°28' E 005°06'510.6
2018-Jan-12 00:30N 53°24' E 005°01'5 9.6
2018-Jan-12 00:00N 53°20' E 004°57'4 7.1
2018-Jan-11 23:30N 53°19' E 005°03'4 7.5
2018-Jan-11 23:00N 53°19' E 005°10'5 9.2
2018-Jan-11 22:30N 53°14' E 005°11'5 9.6
2018-Jan-11 22:01N 53°12' E 005°18'4 8.3
2018-Jan-11 21:31N 53°10' E 005°24'1 1.7
2018-Jan-11 20:58N 53°11' E 005°26'0 0.0
2018-Jan-11 20:28N 53°11' E 005°26'0 0.0
2018-Jan-11 19:58N 53°11' E 005°26'0 0.0
2018-Jan-11 19:28N 53°11' E 005°26'0 0.0
2018-Jan-11 18:58N 53°11' E 005°26'0 0.0
2018-Jan-11 18:28N 53°11' E 005°26'0 0.0
2018-Jan-11 17:58N 53°11' E 005°26'0 0.0
2018-Jan-11 17:28N 53°11' E 005°26'0 0.0
2018-Jan-11 16:58N 53°11' E 005°26'0 0.0
2018-Jan-11 16:28N 53°11' E 005°26'0 0.0
2018-Jan-11 15:58N 53°11' E 005°26'0 0.0
2018-Jan-11 15:28N 53°11' E 005°26'0 0.0
2018-Jan-11 14:58N 53°11' E 005°26'0 0.0
2018-Jan-11 14:28N 53°11' E 005°26'0 0.1
2018-Jan-11 13:58N 53°11' E 005°26'0 0.0
2018-Jan-11 13:28N 53°11' E 005°26'0 0.0
2018-Jan-11 12:55N 53°11' E 005°26'0 0.0
2018-Jan-11 12:28N 53°11' E 005°26'0 0.0
2018-Jan-11 11:58N 53°11' E 005°26'0 0.0
2018-Jan-11 11:28N 53°11' E 005°26'0 0.0
2018-Jan-11 10:58N 53°11' E 005°26'0 0.0
2018-Jan-11 10:28N 53°11' E 005°26'0 0.0
2018-Jan-11 09:58N 53°11' E 005°26'0 0.0
2018-Jan-11 09:28N 53°11' E 005°26'0 0.0
2018-Jan-11 08:58N 53°11' E 005°26'0 0.0
2018-Jan-11 08:28N 53°11' E 005°26'  

Dump ship's entire track history